Time;durP1;ratioP1;P1;durP2;ratioP2;P2;SDS_P1;SDS_P2;PMS_P1;PMS_P2;Temp;Humidity;BMP_temperature;BMP_pressure;BME280_temperature;BME280_humidity;BME280_pressure;Samples;Min_cycle;Max_cycle;Signal;HPM_P1;HPM_P2
2021/07/21 00:00:46;;;;;;;9.45;5.18;;;;;;;16.70;nan;100977.09;4989684;28;20358;-85
2021/07/21 00:03:12;;;;;;;6.95;4.82;;;;;;;16.78;nan;100973.53;4971514;28;20037;-85
2021/07/21 00:05:37;;;;;;;7.45;5.05;;;;;;;16.77;nan;100970.00;4992897;28;20038;-84
2021/07/21 00:08:04;;;;;;;8.07;4.75;;;;;;;16.79;nan;100974.38;4965151;28;20035;-85
2021/07/21 00:10:31;;;;;;;6.45;4.50;;;;;;;16.71;nan;100968.09;4990284;28;20116;-84
2021/07/21 00:15:52;;;;;;;7.20;5.18;;;;;;;16.61;nan;100962.16;4991477;28;20053;-85
2021/07/21 00:18:30;;;;;;;6.85;4.88;;;;;;;16.55;nan;100962.88;4975944;28;20496;-85
2021/07/21 00:20:55;;;;;;;6.72;4.50;;;;;;;16.45;nan;100957.81;4982355;28;20035;-84
2021/07/21 00:23:20;;;;;;;6.63;4.85;;;;;;;16.41;nan;100955.66;4991716;28;20439;-84
2021/07/21 00:25:47;;;;;;;6.40;4.63;;;;;;;16.31;nan;100963.91;4987481;28;20096;-84
2021/07/21 00:28:13;;;;;;;6.57;4.53;;;;;;;16.28;nan;100973.13;4982403;28;20030;-84
2021/07/21 00:30:39;;;;;;;5.70;4.32;;;;;;;16.23;nan;100964.81;4974213;28;20034;-85
2021/07/21 00:33:04;;;;;;;6.88;4.70;;;;;;;16.12;nan;100960.72;4989707;28;20037;-85
2021/07/21 00:35:29;;;;;;;8.23;4.78;;;;;;;16.07;nan;100955.09;4975326;28;20038;-84
2021/07/21 00:37:55;;;;;;;6.22;4.80;;;;;;;16.09;nan;100952.25;4969586;28;20038;-85
2021/07/21 00:40:20;;;;;;;6.60;4.72;;;;;;;16.10;nan;100953.91;4968431;28;20100;-85
2021/07/21 00:42:46;;;;;;;7.93;5.03;;;;;;;16.15;nan;100948.84;4972262;28;20031;-85
2021/07/21 00:45:12;;;;;;;6.55;4.60;;;;;;;16.19;nan;100954.69;4991563;28;20591;-85
2021/07/21 00:47:38;;;;;;;5.65;3.78;;;;;;;16.24;nan;100952.31;4986331;28;20041;-85
2021/07/21 00:50:05;;;;;;;5.68;4.20;;;;;;;16.20;nan;100949.16;4985832;28;20035;-84
2021/07/21 00:52:36;;;;;;;6.03;4.22;;;;;;;16.09;nan;100952.25;4981305;28;20035;-85
2021/07/21 00:55:04;;;;;;;6.65;4.57;;;;;;;16.04;nan;100955.44;4975408;28;20034;-83
2021/07/21 00:57:29;;;;;;;7.65;5.53;;;;;;;15.96;nan;100946.66;4966213;28;20026;-84
2021/07/21 00:59:55;;;;;;;7.15;4.88;;;;;;;15.97;nan;100951.81;4991981;28;20439;-84
2021/07/21 01:02:21;;;;;;;7.45;4.78;;;;;;;15.97;nan;100951.81;4977205;28;20573;-84
2021/07/21 01:04:46;;;;;;;6.07;4.90;;;;;;;15.98;nan;100957.97;4992844;28;20125;-84
2021/07/21 01:07:11;;;;;;;6.75;4.60;;;;;;;15.99;nan;100957.78;4986395;28;20042;-84
2021/07/21 01:09:42;;;;;;;8.48;5.40;;;;;;;16.03;nan;100956.44;4975666;28;20057;-84
2021/07/21 01:12:33;;;;;;;11.60;6.80;;;;;;;16.12;nan;100960.72;4990711;28;20065;-85
2021/07/21 01:15:09;;;;;;;12.70;7.00;;;;;;;16.34;nan;100960.88;4984235;28;20039;-83
2021/07/21 01:17:52;;;;;;;22.55;9.70;;;;;;;16.44;nan;100952.63;4988509;28;20058;-84
2021/07/21 01:20:33;;;;;;;12.23;6.47;;;;;;;16.55;nan;100960.22;4986949;28;20408;-84
2021/07/21 01:23:10;;;;;;;9.95;5.82;;;;;;;16.53;nan;100960.38;4992414;28;20034;-84
2021/07/21 01:25:54;;;;;;;8.73;5.70;;;;;;;16.47;nan;100960.28;4968684;28;20049;-84
2021/07/21 01:28:20;;;;;;;7.03;4.93;;;;;;;16.44;nan;100960.63;4979641;28;20111;-83
2021/07/21 01:30:47;;;;;;;7.43;5.18;;;;;;;16.40;nan;100959.31;4975691;28;20552;-84
2021/07/21 01:33:14;;;;;;;8.23;5.22;;;;;;;16.35;nan;100962.53;4984427;28;20039;-84
2021/07/21 01:35:54;;;;;;;8.23;5.03;;;;;;;16.30;nan;100963.09;4970159;28;20034;-83
2021/07/21 01:38:28;;;;;;;7.45;4.82;;;;;;;16.23;nan;100963.97;4995348;28;20061;-83
2021/07/21 01:40:57;;;;;;;6.60;4.35;;;;;;;16.19;nan;100960.00;4983870;28;20034;-84
2021/07/21 01:43:27;;;;;;;8.15;5.13;;;;;;;16.09;nan;100970.91;4972039;28;20164;-83
2021/07/21 01:45:54;;;;;;;7.15;4.50;;;;;;;15.99;nan;100976.47;4979251;28;20046;-83
2021/07/21 01:48:22;;;;;;;6.78;5.03;;;;;;;15.84;nan;100965.72;4972146;28;20412;-84
2021/07/21 01:50:49;;;;;;;7.20;5.10;;;;;;;15.76;nan;100965.78;4978417;28;20480;-83
2021/07/21 01:53:17;;;;;;;9.00;5.55;;;;;;;15.69;nan;100962.13;4986222;28;20109;-86
2021/07/21 01:55:43;;;;;;;10.80;5.70;;;;;;;15.69;nan;100962.13;4967716;28;20515;-84
2021/07/21 01:58:10;;;;;;;9.18;6.20;;;;;;;15.68;nan;100960.44;4995485;28;20053;-83
2021/07/21 02:00:37;;;;;;;15.30;6.97;;;;;;;15.70;nan;100959.28;4992323;28;20030;-83
2021/07/21 02:03:04;;;;;;;8.77;5.75;;;;;;;15.68;nan;100963.97;4996779;28;20492;-86
2021/07/21 02:05:30;;;;;;;11.10;6.38;;;;;;;15.79;nan;100962.75;4991915;28;20069;-84
2021/07/21 02:07:56;;;;;;;15.73;8.02;;;;;;;15.83;nan;100969.41;4979940;28;20031;-86
2021/07/21 02:10:26;;;;;;;18.30;8.48;;;;;;;15.80;nan;100967.09;4975673;28;20042;-84
2021/07/21 02:12:55;;;;;;;24.80;10.25;;;;;;;15.79;nan;100962.75;4989885;28;20038;-83
2021/07/21 02:15:21;;;;;;;16.35;7.80;;;;;;;15.87;nan;100953.88;4996690;28;20069;-83
2021/07/21 02:17:47;;;;;;;9.00;5.43;;;;;;;16.00;nan;100963.97;4990721;28;20030;-84
2021/07/21 02:20:13;;;;;;;7.85;5.47;;;;;;;16.00;nan;100963.97;4995324;28;20034;-84
2021/07/21 02:22:41;;;;;;;8.10;5.40;;;;;;;16.04;nan;100955.44;4982881;28;20057;-83
2021/07/21 02:25:09;;;;;;;7.18;5.00;;;;;;;16.02;nan;100952.13;4981526;28;20031;-84
2021/07/21 02:27:34;;;;;;;7.38;5.53;;;;;;;16.04;nan;100957.25;4982568;28;20396;-84
2021/07/21 02:30:00;;;;;;;6.63;4.40;;;;;;;15.92;nan;100943.50;5005082;28;20037;-83
2021/07/21 02:32:32;;;;;;;8.27;5.38;;;;;;;15.88;nan;100956.38;4977629;28;20042;-84
2021/07/21 02:34:59;;;;;;;5.70;4.25;;;;;;;15.82;nan;100940.22;4991620;28;20107;-85
2021/07/21 02:37:25;;;;;;;7.45;4.53;;;;;;;15.73;nan;100946.63;4970539;28;20066;-85
2021/07/21 02:39:52;;;;;;;8.65;4.90;;;;;;;15.66;nan;100955.31;4972434;28;20030;-83
2021/07/21 02:42:19;;;;;;;6.15;4.47;;;;;;;15.58;nan;100955.31;4986279;28;20038;-84
2021/07/21 02:44:46;;;;;;;5.93;4.50;;;;;;;15.53;nan;100960.34;4992511;28;20039;-83
2021/07/21 02:47:12;;;;;;;7.15;4.68;;;;;;;15.48;nan;100958.19;4969363;28;20058;-83
2021/07/21 02:49:39;;;;;;;6.45;4.38;;;;;;;15.42;nan;100958.91;4971760;28;20088;-83
2021/07/21 02:52:13;;;;;;;7.53;5.03;;;;;;;15.32;nan;100958.25;4967368;28;20113;-85
2021/07/21 02:55:02;;;;;;;7.13;5.28;;;;;;;15.22;nan;100955.81;4990433;28;20098;-85
2021/07/21 02:57:43;;;;;;;6.15;4.80;;;;;;;15.11;nan;100958.84;4989449;28;20038;-83
2021/07/21 03:00:14;;;;;;;6.07;4.35;;;;;;;15.07;nan;100961.00;4961804;28;20113;-83
2021/07/21 03:02:41;;;;;;;7.65;4.70;;;;;;;14.99;nan;100960.19;4986935;28;20038;-84
2021/07/21 03:05:09;;;;;;;6.72;4.85;;;;;;;14.98;nan;100964.69;4969981;28;20034;-86
2021/07/21 03:07:38;;;;;;;6.97;5.15;;;;;;;15.04;nan;100964.03;4961313;28;20130;-84
2021/07/21 03:10:06;;;;;;;7.28;4.32;;;;;;;15.06;nan;100971.81;4969244;28;20062;-85
2021/07/21 03:12:36;;;;;;;7.00;4.80;;;;;;;15.03;nan;100973.00;4978193;28;20031;-84
2021/07/21 03:15:02;;;;;;;6.78;4.80;;;;;;;15.06;nan;100972.69;4990905;28;20070;-84
2021/07/21 03:17:33;;;;;;;8.40;5.07;;;;;;;15.05;nan;100975.50;4988679;28;20046;-83
2021/07/21 03:19:59;;;;;;;5.87;3.90;;;;;;;15.04;nan;100980.00;4977297;28;20531;-84
2021/07/21 03:22:27;;;;;;;8.40;5.15;;;;;;;14.98;nan;100980.69;4969017;28;20434;-82
2021/07/21 03:24:53;;;;;;;7.15;4.95;;;;;;;14.94;nan;100984.66;4988700;28;20041;-83
2021/07/21 03:27:20;;;;;;;7.60;5.07;;;;;;;14.90;nan;100987.84;4972217;28;20038;-83
2021/07/21 03:29:50;;;;;;;7.35;5.00;;;;;;;14.86;nan;100985.50;4979016;28;20109;-83
2021/07/21 03:32:18;;;;;;;6.07;4.28;;;;;;;14.81;nan;100990.53;4973350;28;20030;-84
2021/07/21 03:34:46;;;;;;;6.65;4.35;;;;;;;14.79;nan;100997.00;4989917;28;20049;-83
2021/07/21 03:37:12;;;;;;;6.35;4.35;;;;;;;14.80;nan;100994.19;4972768;28;20453;-83
2021/07/21 03:39:38;;;;;;;7.70;5.00;;;;;;;14.80;nan;100999.53;4993397;28;20085;-83
2021/07/21 03:42:05;;;;;;;7.50;4.57;;;;;;;14.81;nan;100995.84;4971766;28;20511;-86
2021/07/21 03:44:31;;;;;;;7.30;5.18;;;;;;;14.79;nan;100999.69;4990369;28;20030;-85
2021/07/21 03:46:57;;;;;;;6.22;4.55;;;;;;;14.77;nan;100996.34;4991468;28;20403;-85
2021/07/21 03:49:23;;;;;;;7.43;4.53;;;;;;;14.76;nan;100997.34;4973336;28;20415;-85
2021/07/21 03:51:49;;;;;;;8.13;5.22;;;;;;;14.74;nan;100999.34;4994760;28;20036;-85
2021/07/21 03:54:16;;;;;;;8.23;5.07;;;;;;;14.72;nan;100988.84;4989654;28;20069;-85
2021/07/21 03:56:44;;;;;;;6.55;4.32;;;;;;;14.73;nan;101001.19;4986205;28;20047;-85
2021/07/21 03:59:15;;;;;;;7.05;5.20;;;;;;;14.69;nan;100999.84;4979244;28;20399;-85
2021/07/21 04:01:41;;;;;;;7.22;5.18;;;;;;;14.64;nan;101004.84;4985069;28;21392;-84
2021/07/21 04:04:08;;;;;;;7.80;4.85;;;;;;;14.60;nan;101003.50;4987499;28;20026;-85
2021/07/21 04:06:36;;;;;;;6.38;5.07;;;;;;;14.59;nan;101005.34;4960625;28;20035;-85
2021/07/21 04:09:07;;;;;;;7.80;4.68;;;;;;;14.61;nan;101005.16;4989407;28;20050;-85
2021/07/21 04:11:35;;;;;;;6.13;4.57;;;;;;;14.62;nan;101007.66;4967911;28;20039;-84
2021/07/21 04:14:03;;;;;;;7.03;4.97;;;;;;;14.62;nan;101006.84;4968153;28;20045;-84
2021/07/21 04:16:32;;;;;;;7.43;5.05;;;;;;;14.60;nan;101009.66;4967426;28;20046;-85
2021/07/21 04:18:58;;;;;;;8.30;4.88;;;;;;;14.67;nan;101011.66;4976447;28;20504;-84
2021/07/21 04:21:24;;;;;;;6.53;4.85;;;;;;;14.73;nan;101013.66;4970077;28;20420;-83
2021/07/21 04:23:51;;;;;;;6.63;4.70;;;;;;;14.76;nan;101013.34;4993530;28;20064;-85
2021/07/21 04:26:17;;;;;;;6.05;4.30;;;;;;;14.80;nan;101011.97;4988757;28;20511;-84
2021/07/21 04:28:43;;;;;;;6.32;4.25;;;;;;;14.79;nan;101018.31;4969076;28;20125;-83
2021/07/21 04:31:08;;;;;;;6.93;4.25;;;;;;;14.87;nan;101015.63;4959085;28;20070;-84
2021/07/21 04:33:34;;;;;;;6.30;4.40;;;;;;;14.90;nan;101011.78;4987807;28;20045;-83
2021/07/21 04:36:01;;;;;;;6.72;4.15;;;;;;;14.93;nan;101019.47;4983869;28;20061;-83
2021/07/21 04:38:28;;;;;;;7.10;4.65;;;;;;;14.95;nan;101018.31;4978410;28;20031;-84
2021/07/21 04:40:54;;;;;;;8.57;4.97;;;;;;;14.97;nan;101021.63;4975857;28;20037;-83
2021/07/21 04:43:19;;;;;;;6.30;4.18;;;;;;;14.95;nan;101015.63;4990970;28;20053;-84
2021/07/21 04:45:48;;;;;;;6.20;4.10;;;;;;;15.06;nan;101023.28;4982821;28;20054;-84
2021/07/21 04:48:14;;;;;;;5.90;4.03;;;;;;;15.10;nan;101023.78;4968576;28;20031;-83
2021/07/21 04:50:42;;;;;;;6.07;4.57;;;;;;;15.13;nan;101019.94;4975026;28;20117;-83
2021/07/21 04:53:12;;;;;;;6.70;4.70;;;;;;;15.20;nan;101028.91;4988420;28;20046;-84
2021/07/21 04:55:40;;;;;;;6.57;4.68;;;;;;;15.17;nan;101029.25;4990478;28;20039;-84
2021/07/21 04:58:05;;;;;;;5.13;3.90;;;;;;;15.20;nan;101037.72;4979342;28;20035;-85
2021/07/21 05:00:31;;;;;;;5.85;4.15;;;;;;;15.23;nan;101032.09;4967659;28;20088;-84
2021/07/21 05:02:57;;;;;;;5.20;3.95;;;;;;;15.31;nan;101036.56;4986502;28;20035;-83
2021/07/21 05:05:23;;;;;;;7.07;4.97;;;;;;;15.36;nan;101033.38;4995233;28;20034;-84
2021/07/21 05:07:48;;;;;;;9.55;4.88;;;;;;;15.34;nan;101030.88;4989916;28;20041;-83
2021/07/21 05:10:14;;;;;;;6.07;4.05;;;;;;;15.41;nan;101031.84;4993397;28;20045;-83
2021/07/21 05:12:44;;;;;;;5.75;3.97;;;;;;;15.45;nan;101035.84;4985290;28;20030;-84
2021/07/21 05:15:10;;;;;;;7.82;4.78;;;;;;;15.51;nan;101045.81;4980725;28;20042;-84
2021/07/21 05:17:35;;;;;;;5.85;4.10;;;;;;;15.57;nan;101043.47;4993351;28;20037;-84
2021/07/21 05:20:01;;;;;;;7.25;4.40;;;;;;;15.62;nan;101038.47;4975288;28;20026;-86
2021/07/21 05:22:26;;;;;;;6.25;4.70;;;;;;;15.68;nan;101048.41;4990268;28;20061;-83
2021/07/21 05:24:51;;;;;;;6.78;4.65;;;;;;;15.75;nan;101059.25;4990992;28;20177;-83
2021/07/21 05:27:16;;;;;;;5.88;4.22;;;;;;;15.79;nan;101060.59;4986726;28;20035;-84
2021/07/21 05:29:43;;;;;;;6.60;4.30;;;;;;;15.85;nan;101058.06;4987651;28;20039;-83
2021/07/21 05:32:08;;;;;;;9.43;5.15;;;;;;;15.89;nan;101063.88;4969711;28;20042;-84
2021/07/21 05:34:34;;;;;;;6.20;4.50;;;;;;;16.01;nan;101065.16;4974734;28;20537;-83
2021/07/21 05:36:59;;;;;;;7.15;4.53;;;;;;;16.10;nan;101068.63;4988708;28;20035;-84
2021/07/21 05:39:24;;;;;;;8.90;5.40;;;;;;;16.11;nan;101062.25;4974814;28;20061;-84
2021/07/21 05:41:56;;;;;;;7.47;4.80;;;;;;;16.12;nan;101074.59;4992238;28;20057;-83
2021/07/21 05:44:21;;;;;;;6.93;4.60;;;;;;;16.29;nan;101070.84;4980125;28;20121;-83
2021/07/21 05:46:46;;;;;;;6.07;4.40;;;;;;;16.37;nan;101075.28;4970825;28;20126;-83
2021/07/21 05:49:12;;;;;;;7.28;4.97;;;;;;;16.66;nan;101073.75;4989534;28;20507;-84
2021/07/21 05:51:37;;;;;;;5.97;4.45;;;;;;;16.95;nan;101070.41;4980857;28;20061;-84
2021/07/21 05:54:02;;;;;;;5.90;4.28;;;;;;;17.17;nan;101064.19;4989143;28;20078;-83
2021/07/21 05:56:30;;;;;;;6.18;4.20;;;;;;;17.60;nan;101074.25;4973395;28;20046;-84
2021/07/21 05:58:56;;;;;;;8.15;4.85;;;;;;;17.86;nan;101073.81;4980425;28;20054;-84
2021/07/21 06:01:21;;;;;;;5.43;4.25;;;;;;;18.20;nan;101078.53;4985804;28;20412;-83
2021/07/21 06:03:46;;;;;;;5.38;4.03;;;;;;;18.64;nan;101076.75;4969069;28;20092;-83
2021/07/21 06:06:12;;;;;;;7.05;4.38;;;;;;;18.92;nan;101071.47;4988372;28;20046;-84
2021/07/21 06:08:37;;;;;;;5.50;4.25;;;;;;;19.29;nan;101080.22;4992807;28;20050;-83
2021/07/21 06:11:02;;;;;;;6.20;4.10;;;;;;;19.73;nan;101076.38;4971323;28;20038;-84
2021/07/21 06:13:29;;;;;;;6.30;4.40;;;;;;;19.91;nan;101086.59;4976698;28;20515;-84
2021/07/21 06:15:54;;;;;;;6.88;4.70;;;;;;;20.25;nan;101085.66;4977680;28;20038;-84
2021/07/21 06:18:20;;;;;;;5.90;4.47;;;;;;;20.49;nan;101097.72;4998799;28;20049;-83
2021/07/21 06:20:45;;;;;;;7.20;4.05;;;;;;;20.83;nan;101095.94;4999543;28;20057;-85
2021/07/21 06:23:11;;;;;;;6.95;4.80;;;;;;;21.15;nan;101099.66;4996159;28;20090;-83
2021/07/21 06:25:36;;;;;;;6.15;4.40;;;;;;;21.28;nan;101088.06;4976519;28;20030;-83
2021/07/21 06:28:02;;;;;;;7.15;4.15;;;;;;;21.68;nan;101101.47;4997738;28;20488;-84
2021/07/21 06:30:27;;;;;;;6.63;4.30;;;;;;;21.98;nan;101098.28;4980438;28;20038;-84
2021/07/21 06:32:53;;;;;;;6.22;3.85;;;;;;;22.16;nan;101108.34;4979865;28;20133;-84
2021/07/21 06:35:18;;;;;;;5.47;4.07;;;;;;;22.47;nan;101111.13;4974152;28;20505;-84
2021/07/21 06:37:43;;;;;;;5.63;3.80;;;;;;;22.65;nan;101109.56;4989046;28;20499;-84
2021/07/21 06:40:09;;;;;;;5.45;3.30;;;;;;;22.92;nan;101115.59;4990377;28;20030;-85
2021/07/21 06:42:35;;;;;;;4.63;3.30;;;;;;;23.36;nan;101115.66;4992392;28;20031;-84
2021/07/21 06:45:00;;;;;;;4.53;3.28;;;;;;;23.54;nan;101113.81;4994551;28;20564;-84
2021/07/21 06:47:26;;;;;;;4.13;2.90;;;;;;;23.70;nan;101122.41;4993301;28;20034;-84
2021/07/21 06:49:51;;;;;;;5.40;3.45;;;;;;;23.97;nan;101127.53;4979040;28;20369;-84
2021/07/21 06:52:19;;;;;;;5.13;3.40;;;;;;;23.97;nan;101122.13;4995170;28;20038;-84
2021/07/21 06:54:44;;;;;;;5.05;3.03;;;;;;;24.27;nan;101114.06;4988345;28;20085;-84
2021/07/21 06:57:11;;;;;;;5.25;3.08;;;;;;;24.36;nan;101118.09;4981967;28;20234;-84
2021/07/21 06:59:37;;;;;;;4.60;3.20;;;;;;;24.59;nan;101125.50;4995157;28;20396;-84
2021/07/21 07:02:04;;;;;;;5.00;3.30;;;;;;;24.63;nan;101132.09;4995600;28;20034;-84
2021/07/21 07:04:29;;;;;;;4.78;3.08;;;;;;;24.66;nan;101130.81;4975826;28;20034;-84
2021/07/21 07:06:55;;;;;;;5.63;3.45;;;;;;;25.07;nan;101137.25;4991150;28;20066;-84
2021/07/21 07:09:21;;;;;;;5.45;3.28;;;;;;;25.17;nan;101132.06;4970722;28;20046;-84
2021/07/21 07:11:46;;;;;;;4.75;2.92;;;;;;;25.27;nan;101134.25;4997387;28;20038;-84
2021/07/21 07:14:11;;;;;;;4.80;3.10;;;;;;;25.67;nan;101138.94;4981313;28;20026;-85
2021/07/21 07:16:37;;;;;;;4.30;2.95;;;;;;;26.08;nan;101139.81;4992551;28;20477;-84
2021/07/21 07:19:03;;;;;;;4.45;2.80;;;;;;;26.38;nan;101132.28;4976095;28;20043;-84
2021/07/21 07:21:29;;;;;;;3.70;2.60;;;;;;;26.52;nan;101134.72;4978697;28;20042;-83
2021/07/21 07:23:57;;;;;;;4.10;3.10;;;;;;;26.51;nan;101136.63;4973436;28;20102;-84
2021/07/21 07:26:23;;;;;;;4.45;3.25;;;;;;;26.58;nan;101140.03;4973428;28;20046;-84
2021/07/21 07:28:48;;;;;;;5.20;3.10;;;;;;;26.73;nan;101142.19;4993467;28;20492;-85
2021/07/21 07:31:13;;;;;;;4.63;3.03;;;;;;;26.46;nan;101131.91;4973263;28;20062;-85
2021/07/21 07:33:39;;;;;;;5.28;3.42;;;;;;;26.30;nan;101129.16;4967253;28;20050;-84
2021/07/21 07:36:05;;;;;;;7.50;3.72;;;;;;;26.34;nan;101142.00;4963351;28;20038;-84
2021/07/21 07:38:30;;;;;;;4.53;3.05;;;;;;;26.36;nan;101128.19;4985177;28;20038;-85
2021/07/21 07:40:56;;;;;;;3.13;2.42;;;;;;;26.60;nan;101126.19;4966359;28;20027;-85
2021/07/21 07:43:22;;;;;;;4.18;2.63;;;;;;;27.20;nan;101124.81;4985985;28;20047;-85
2021/07/21 07:45:48;;;;;;;4.55;2.80;;;;;;;27.41;nan;101118.63;4972103;28;20112;-84
2021/07/21 07:48:13;;;;;;;4.80;3.13;;;;;;;27.46;nan;101118.69;4975878;28;20237;-85
2021/07/21 07:50:38;;;;;;;4.05;2.80;;;;;;;27.43;nan;101123.78;4976605;28;20038;-84
2021/07/21 07:53:04;;;;;;;3.70;2.40;;;;;;;28.00;nan;101117.22;4993993;28;20045;-85
2021/07/21 07:55:29;;;;;;;3.72;2.60;;;;;;;28.25;nan;101117.53;4991914;28;20177;-85
2021/07/21 07:57:55;;;;;;;4.18;2.70;;;;;;;28.48;nan;101110.97;4976520;28;20058;-85
2021/07/21 08:00:20;;;;;;;3.97;2.83;;;;;;;28.34;nan;101117.88;4972931;28;20065;-84
2021/07/21 08:02:46;;;;;;;4.55;2.80;;;;;;;28.72;nan;101106.03;4986224;28;20503;-86
2021/07/21 08:05:12;;;;;;;4.15;3.00;;;;;;;28.92;nan;101115.47;4993409;28;20058;-85
2021/07/21 08:07:38;;;;;;;4.25;2.72;;;;;;;28.93;nan;101114.38;4984769;28;20058;-85
2021/07/21 08:10:11;;;;;;;4.13;2.60;;;;;;;29.51;nan;101114.50;4967077;28;20045;-85
2021/07/21 08:12:37;;;;;;;4.00;2.72;;;;;;;29.69;nan;101116.81;4992013;28;20038;-84
2021/07/21 08:15:02;;;;;;;4.38;2.80;;;;;;;29.53;nan;101115.06;4970598;28;20041;-85
2021/07/21 08:17:28;;;;;;;5.20;2.97;;;;;;;29.55;nan;101104.72;4987315;28;20085;-84
2021/07/21 08:19:53;;;;;;;5.53;3.25;;;;;;;29.19;nan;101118.13;4967103;28;20039;-85
2021/07/21 08:22:18;;;;;;;4.70;3.20;;;;;;;29.10;nan;101114.25;4983474;28;20031;-84
2021/07/21 08:24:44;;;;;;;4.65;3.13;;;;;;;29.09;nan;101112.63;4970777;28;20305;-85
2021/07/21 08:27:09;;;;;;;4.10;2.97;;;;;;;28.85;nan;101109.41;4983614;28;20134;-85
2021/07/21 08:29:35;;;;;;;4.03;2.60;;;;;;;29.28;nan;101113.84;4976146;28;20034;-85
2021/07/21 08:32:01;;;;;;;5.40;2.97;;;;;;;29.53;nan;101112.34;4971278;28;20285;-85
2021/07/21 08:34:27;;;;;;;4.13;3.03;;;;;;;29.89;nan;101113.38;4987796;28;20042;-85
2021/07/21 08:36:52;;;;;;;4.00;2.65;;;;;;;30.18;nan;101113.72;4976604;28;20034;-85
2021/07/21 08:39:17;;;;;;;4.70;2.85;;;;;;;30.24;nan;101100.91;4991619;28;20038;-85
2021/07/21 08:41:43;;;;;;;5.03;3.08;;;;;;;30.42;nan;101105.91;4966308;28;20039;-86
2021/07/21 08:44:12;;;;;;;5.32;3.30;;;;;;;30.71;nan;101099.91;4965588;28;20033;-85
2021/07/21 08:46:39;;;;;;;4.72;2.92;;;;;;;30.66;nan;101113.56;4957994;28;20098;-85
2021/07/21 08:49:07;;;;;;;4.65;3.03;;;;;;;30.92;nan;101099.97;4964679;28;20500;-85
2021/07/21 08:51:34;;;;;;;4.80;2.80;;;;;;;31.43;nan;101099.88;4982192;28;20039;-85
2021/07/21 08:54:00;;;;;;;4.03;2.95;;;;;;;31.35;nan;101097.69;4987369;28;20295;-85
2021/07/21 08:56:27;;;;;;;3.60;2.78;;;;;;;31.57;nan;101095.47;4992794;28;20031;-84
2021/07/21 08:58:52;;;;;;;4.22;3.33;;;;;;;31.72;nan;101097.31;4961502;28;20039;-85
2021/07/21 09:01:18;;;;;;;4.63;3.28;;;;;;;31.87;nan;101100.00;4985919;28;20126;-85
2021/07/21 09:03:44;;;;;;;4.45;3.00;;;;;;;31.47;nan;101101.78;4981264;28;20058;-85
2021/07/21 09:06:12;;;;;;;5.07;3.30;;;;;;;31.64;nan;101108.84;4983501;28;20560;-86
2021/07/21 09:08:37;;;;;;;4.97;3.08;;;;;;;31.79;nan;101110.69;4970980;28;20430;-85
2021/07/21 09:11:03;;;;;;;3.92;2.83;;;;;;;32.26;nan;101106.66;4994030;28;20113;-85
2021/07/21 09:13:29;;;;;;;3.58;2.90;;;;;;;31.52;nan;101107.22;4974277;28;20070;-84
2021/07/21 09:15:54;;;;;;;4.22;2.80;;;;;;;31.45;nan;101103.16;4970576;28;20392;-85
2021/07/21 09:18:22;;;;;;;6.13;3.20;;;;;;;31.36;nan;101111.06;4965370;28;20045;-85
2021/07/21 09:20:56;;;;;;;4.32;2.92;;;;;;;30.91;nan;101112.78;4967377;28;20084;-85
2021/07/21 09:23:36;;;;;;;4.20;2.72;;;;;;;30.14;nan;101096.25;4968423;28;20068;-85
2021/07/21 09:26:01;;;;;;;4.38;3.20;;;;;;;29.34;nan;101101.06;4969357;28;20484;-84
2021/07/21 09:28:37;;;;;;;5.60;2.90;;;;;;;29.49;nan;101101.16;4973237;28;20097;-85
2021/07/21 09:31:04;;;;;;;4.13;3.15;;;;;;;29.68;nan;101096.09;4985123;28;20091;-84
2021/07/21 09:33:30;;;;;;;4.57;3.10;;;;;;;29.52;nan;101102.53;4969464;28;20066;-86
2021/07/21 09:35:56;;;;;;;4.80;3.13;;;;;;;29.42;nan;101104.13;4989461;28;20037;-85
2021/07/21 09:38:30;;;;;;;4.78;3.13;;;;;;;28.86;nan;101106.41;4990006;28;20077;-84
2021/07/21 09:40:58;;;;;;;5.82;3.70;;;;;;;28.59;nan;101106.47;4998953;28;20049;-85
2021/07/21 09:43:28;;;;;;;3.80;3.08;;;;;;;28.60;nan;101099.91;4988907;28;20039;-85
2021/07/21 09:45:54;;;;;;;4.75;3.35;;;;;;;28.50;nan;101106.09;4969203;28;20034;-85
2021/07/21 09:48:44;;;;;;;3.85;3.10;;;;;;;28.55;nan;101105.31;4971082;28;20027;-85
2021/07/21 09:51:26;;;;;;;5.13;3.28;;;;;;;28.61;nan;101104.31;4985924;28;20027;-84
2021/07/21 09:53:52;;;;;;;5.28;3.25;;;;;;;28.29;nan;101105.06;4979400;28;20038;-85
2021/07/21 09:56:31;;;;;;;4.78;3.20;;;;;;;28.59;nan;101101.00;4996568;28;20038;-84
2021/07/21 09:59:25;;;;;;;4.03;3.33;;;;;;;28.41;nan;101113.03;4990396;28;20392;-84
2021/07/21 10:01:52;;;;;;;3.72;2.78;;;;;;;28.32;nan;101109.97;4989507;28;20448;-84
2021/07/21 10:04:30;;;;;;;4.57;3.45;;;;;;;28.24;nan;101110.41;4981295;28;20547;-84
2021/07/21 10:06:55;;;;;;;4.95;3.35;;;;;;;28.31;nan;101102.06;4965245;28;20463;-85
2021/07/21 10:09:24;;;;;;;5.35;3.78;;;;;;;27.82;nan;101107.47;4979700;28;20030;-83
2021/07/21 10:11:49;;;;;;;6.05;3.67;;;;;;;27.47;nan;101106.72;4978311;28;20037;-84
2021/07/21 10:14:15;;;;;;;5.18;3.42;;;;;;;27.51;nan;101097.03;4983849;28;20031;-84
2021/07/21 10:16:46;;;;;;;4.13;2.90;;;;;;;27.67;nan;101099.94;4984613;28;20421;-84
2021/07/21 10:19:11;;;;;;;5.35;3.25;;;;;;;27.99;nan;101099.28;4960468;28;20041;-84
2021/07/21 10:21:39;;;;;;;6.63;3.57;;;;;;;28.10;nan;101096.44;4978903;28;20060;-84
2021/07/21 10:24:05;;;;;;;4.57;3.40;;;;;;;27.39;nan;101096.31;4996577;28;20638;-86
2021/07/21 10:26:31;;;;;;;4.90;3.60;;;;;;;27.42;nan;101097.69;4962386;28;20223;-85
2021/07/21 10:28:58;;;;;;;5.72;3.70;;;;;;;27.62;nan;101095.25;4960144;28;20157;-84
2021/07/21 10:31:25;;;;;;;5.22;3.53;;;;;;;27.67;nan;101094.50;4985950;28;20039;-85
2021/07/21 10:33:52;;;;;;;4.45;3.13;;;;;;;27.52;nan;101087.78;4989675;28;20388;-84
2021/07/21 10:36:19;;;;;;;6.03;4.10;;;;;;;27.16;nan;101086.44;4980684;28;20039;-85
2021/07/21 10:38:45;;;;;;;5.85;3.65;;;;;;;27.21;nan;101099.28;4967462;28;20030;-84
2021/07/21 10:41:13;;;;;;;5.28;4.00;;;;;;;27.11;nan;101097.22;4965440;28;20033;-85
2021/07/21 10:43:46;;;;;;;5.68;3.83;;;;;;;26.64;nan;101087.50;4993690;28;20080;-84
2021/07/21 10:46:33;;;;;;;4.50;3.30;;;;;;;27.00;nan;101088.06;4959815;28;20023;-85
2021/07/21 10:49:19;;;;;;;5.22;3.85;;;;;;;27.11;nan;101099.94;4995378;28;20057;-84
2021/07/21 10:55:02;;;;;;;6.50;3.72;;;;;;;27.28;nan;101087.19;4980276;28;20062;-85
2021/07/21 11:00:39;;;;;;;4.60;3.75;;;;;;;27.36;nan;101076.97;4995692;28;20491;-84
2021/07/21 11:03:20;;;;;;;6.10;3.80;;;;;;;27.29;nan;101074.41;4988699;28;20026;-84
2021/07/21 11:05:50;;;;;;;;;;;;;;;26.98;nan;101078.53;4974508;28;20143;-84
2021/07/21 11:08:18;;;;;;;4.85;3.63;;;;;;;27.04;nan;101072.13;4975938;28;20291;-84
2021/07/21 11:10:45;;;;;;;5.68;4.18;;;;;;;27.01;nan;101078.88;4978673;28;20042;-84
2021/07/21 11:13:13;;;;;;;5.20;3.85;;;;;;;27.10;nan;101073.84;4978092;28;20034;-84
2021/07/21 11:15:44;;;;;;;5.43;3.90;;;;;;;27.02;nan;101068.84;4995327;28;20402;-84
2021/07/21 11:18:21;;;;;;;;;;;;;;;26.95;nan;101070.91;4986925;28;20040;-83
2021/07/21 11:21:03;;;;;;;4.88;3.50;;;;;;;27.15;nan;101065.78;4972790;28;19918;-85
2021/07/21 11:23:54;;;;;;;4.65;3.60;;;;;;;27.26;nan;101064.88;4997266;28;20447;-84
2021/07/21 11:26:31;;;;;;;4.93;3.70;;;;;;;27.26;nan;101056.72;4995432;28;20054;-84
2021/07/21 11:28:58;;;;;;;5.95;3.38;;;;;;;27.33;nan;101057.38;4984049;28;20118;-83
2021/07/21 11:31:48;;;;;;;5.28;3.83;;;;;;;27.13;nan;101058.97;4992980;28;20217;-85
2021/07/21 11:34:14;;;;;;;6.10;4.15;;;;;;;26.96;nan;101058.97;4987084;28;20034;-85
2021/07/21 11:36:40;;;;;;;5.35;3.85;;;;;;;26.65;nan;101061.22;4985848;28;20046;-84
2021/07/21 11:39:07;;;;;;;5.93;4.00;;;;;;;26.69;nan;101056.91;4976808;28;20353;-84
2021/07/21 11:41:45;;;;;;;5.28;3.80;;;;;;;26.89;nan;101059.97;4977506;28;20093;-84
2021/07/21 11:44:19;;;;;;;5.30;3.92;;;;;;;27.00;nan;101051.97;4985602;28;20539;-84
2021/07/21 11:46:44;;;;;;;4.88;3.70;;;;;;;27.13;nan;101043.50;4975549;28;20030;-84
2021/07/21 11:49:11;;;;;;;5.43;4.00;;;;;;;27.25;nan;101049.69;4978532;28;20038;-84
2021/07/21 11:51:38;;;;;;;5.10;3.83;;;;;;;27.13;nan;101043.50;4986598;28;20041;-83
2021/07/21 11:54:04;;;;;;;5.68;3.63;;;;;;;27.33;nan;101040.28;4974968;28;20043;-84